createdAt,value
2023-05-21T00:02:19.676Z,349.85
2023-05-21T00:04:46.290Z,351.52
2023-05-21T00:07:13.382Z,436.00
2023-05-21T00:09:39.782Z,389.83
2023-05-21T00:12:08.197Z,352.70
2023-05-21T00:14:35.536Z,337.13
2023-05-21T00:17:02.020Z,318.52
2023-05-21T00:19:28.505Z,325.77
2023-05-21T00:21:55.900Z,313.58
2023-05-21T00:24:22.291Z,237.00
2023-05-21T00:26:48.677Z,154.85
2023-05-21T00:29:15.092Z,187.43
2023-05-21T00:31:41.535Z,217.32
2023-05-21T00:34:07.987Z,249.43
2023-05-21T00:36:34.759Z,208.05
2023-05-21T00:39:02.352Z,217.75
2023-05-21T00:41:30.123Z,234.77
2023-05-21T00:44:00.230Z,192.68
2023-05-21T00:46:28.499Z,229.60
2023-05-21T00:48:55.479Z,190.30
2023-05-21T00:51:22.125Z,171.93
2023-05-21T00:53:52.522Z,146.65
2023-05-21T00:56:22.575Z,155.20
2023-05-21T00:58:51.708Z,173.65
2023-05-21T01:01:18.468Z,193.70
2023-05-21T01:03:44.990Z,167.32
2023-05-21T01:06:13.917Z,163.77
2023-05-21T01:08:41.610Z,163.88
2023-05-21T01:11:09.420Z,167.05
2023-05-21T01:13:39.870Z,166.82
2023-05-21T01:16:06.720Z,137.02
2023-05-21T01:18:43.470Z,166.88
2023-05-21T01:21:10.232Z,173.02
2023-05-21T01:23:36.765Z,168.48
2023-05-21T01:26:03.154Z,138.38
2023-05-21T01:28:29.872Z,153.93
2023-05-21T01:31:02.881Z,119.55
2023-05-21T01:33:49.902Z,117.22
2023-05-21T01:36:26.836Z,112.18
2023-05-21T01:39:23.837Z,93.53
2023-05-21T01:41:53.362Z,91.43
2023-05-21T01:44:20.913Z,119.93
2023-05-21T01:46:47.359Z,125.85
2023-05-21T01:49:15.758Z,137.65
2023-05-21T01:51:42.800Z,121.05
2023-05-21T01:54:09.191Z,129.75
2023-05-21T01:56:36.976Z,108.32
2023-05-21T01:59:03.451Z,125.03
2023-05-21T02:01:30.590Z,136.43
2023-05-21T02:03:58.058Z,116.78
2023-05-21T02:06:24.611Z,110.80
2023-05-21T02:08:51.053Z,118.95
2023-05-21T02:11:17.609Z,136.50
2023-05-21T02:13:46.049Z,102.20
2023-05-21T02:16:14.578Z,148.80
2023-05-21T02:18:43.599Z,86.05
2023-05-21T02:21:13.489Z,112.05
2023-05-21T02:23:39.949Z,118.30
2023-05-21T02:26:06.366Z,101.18
2023-05-21T02:28:33.746Z,107.97
2023-05-21T02:31:00.562Z,111.47
2023-05-21T02:33:26.975Z,138.30
2023-05-21T02:35:53.524Z,146.82
2023-05-21T02:38:23.053Z,154.57
2023-05-21T02:40:53.290Z,140.27
2023-05-21T02:43:19.875Z,149.25
2023-05-21T02:45:46.336Z,154.68
2023-05-21T02:48:12.830Z,183.75
2023-05-21T02:50:39.348Z,157.95
2023-05-21T02:53:06.314Z,172.93
2023-05-21T02:55:32.717Z,181.93
2023-05-21T02:57:59.086Z,155.57
2023-05-21T03:00:25.451Z,171.57
2023-05-21T03:02:51.868Z,187.15
2023-05-21T03:05:18.386Z,113.60
2023-05-21T03:07:44.780Z,140.00
2023-05-21T03:10:11.203Z,137.15
2023-05-21T03:12:37.975Z,150.00
2023-05-21T03:15:04.873Z,127.15
2023-05-21T03:17:32.269Z,131.60
2023-05-21T03:19:58.748Z,145.57
2023-05-21T03:22:25.217Z,136.35
2023-05-21T03:24:51.605Z,114.63
2023-05-21T03:27:18.017Z,110.35
2023-05-21T03:29:44.610Z,110.78
2023-05-21T03:32:11.135Z,111.70
2023-05-21T03:34:37.627Z,112.03
2023-05-21T03:37:04.106Z,137.02
2023-05-21T03:39:30.503Z,118.30
2023-05-21T03:41:56.904Z,134.80
2023-05-21T03:44:23.303Z,127.45
2023-05-21T03:46:49.697Z,135.50
2023-05-21T03:49:16.172Z,132.35
2023-05-21T03:51:42.655Z,133.23
2023-05-21T03:54:09.096Z,126.30
2023-05-21T03:56:35.626Z,137.98
2023-05-21T03:59:02.191Z,127.63
2023-05-21T04:01:32.889Z,126.38
2023-05-21T04:03:59.446Z,117.50
2023-05-21T04:06:25.950Z,149.07
2023-05-21T04:08:52.390Z,129.15
2023-05-21T04:11:18.862Z,139.25
2023-05-21T04:13:46.095Z,150.15
2023-05-21T04:16:14.733Z,145.02
2023-05-21T04:18:45.661Z,148.68
2023-05-21T04:21:12.386Z,134.23
2023-05-21T04:23:38.799Z,163.38
2023-05-21T04:26:05.235Z,176.68
2023-05-21T04:28:31.684Z,134.65
2023-05-21T04:30:58.775Z,168.93
2023-05-21T04:33:25.649Z,128.60
2023-05-21T04:35:52.125Z,134.23
2023-05-21T04:38:19.767Z,151.63
2023-05-21T04:40:53.142Z,154.18
2023-05-21T04:43:25.745Z,133.00
2023-05-21T04:45:54.694Z,107.22
2023-05-21T04:48:24.570Z,116.03
2023-05-21T04:50:51.953Z,133.50
2023-05-21T04:53:18.342Z,144.48
2023-05-21T04:55:44.788Z,105.57
2023-05-21T04:58:11.196Z,149.93
2023-05-21T05:00:38.335Z,151.70
2023-05-21T05:03:05.160Z,144.05
2023-05-21T05:05:31.637Z,124.72
2023-05-21T05:07:58.206Z,129.80
2023-05-21T05:10:24.593Z,166.93
2023-05-21T05:12:50.951Z,160.43
2023-05-21T05:15:17.346Z,139.93
2023-05-21T05:17:44.745Z,122.95
2023-05-21T05:20:11.592Z,160.63
2023-05-21T05:22:38.077Z,169.35
2023-05-21T05:25:04.976Z,153.18
2023-05-21T05:27:31.436Z,138.70
2023-05-21T05:29:57.869Z,161.40
2023-05-21T05:32:24.292Z,168.32
2023-05-21T05:34:50.785Z,161.68
2023-05-21T05:37:17.244Z,151.48
2023-05-21T05:39:43.674Z,132.70
2023-05-21T05:42:10.062Z,164.93
2023-05-21T05:44:36.588Z,168.55
2023-05-21T05:47:03.085Z,149.10
2023-05-21T05:49:29.514Z,142.05
2023-05-21T05:51:56.638Z,126.53
2023-05-21T05:54:23.079Z,147.30
2023-05-21T05:56:49.452Z,105.05
2023-05-21T05:59:16.472Z,143.18
2023-05-21T06:01:42.937Z,160.40
2023-05-21T06:04:09.422Z,130.93
2023-05-21T06:06:36.708Z,124.20
2023-05-21T06:09:03.169Z,138.70
2023-05-21T06:11:29.654Z,77.88
2023-05-21T06:13:56.702Z,147.05
2023-05-21T06:16:23.258Z,126.03
2023-05-21T06:18:49.767Z,129.45
2023-05-21T06:21:16.390Z,101.65
2023-05-21T06:23:42.817Z,128.80
2023-05-21T06:26:09.291Z,84.25
2023-05-21T06:28:36.209Z,96.35
2023-05-21T06:31:02.713Z,92.90
2023-05-21T06:33:29.234Z,145.63
2023-05-21T06:35:56.010Z,117.88
2023-05-21T06:38:22.469Z,147.20
2023-05-21T06:40:49.464Z,98.80
2023-05-21T06:43:15.994Z,124.95
2023-05-21T06:45:42.498Z,106.75
2023-05-21T06:48:09.144Z,74.65
2023-05-21T06:50:35.650Z,148.98
2023-05-21T06:53:02.099Z,100.70
2023-05-21T06:55:28.588Z,89.63
2023-05-21T06:57:57.454Z,96.43
2023-05-21T07:00:23.933Z,102.18
2023-05-21T07:02:50.690Z,100.03
2023-05-21T07:05:17.258Z,105.47
2023-05-21T07:07:43.736Z,152.93
2023-05-21T07:10:10.639Z,85.75
2023-05-21T07:12:37.078Z,85.13
2023-05-21T07:15:03.709Z,95.93
2023-05-21T07:17:30.221Z,61.33
2023-05-21T07:19:56.679Z,86.90
2023-05-21T07:22:23.039Z,72.70
2023-05-21T07:24:49.451Z,80.68
2023-05-21T07:27:25.252Z,104.07
2023-05-21T07:29:52.486Z,126.25
2023-05-21T07:32:18.889Z,66.25
2023-05-21T07:34:45.982Z,77.55
2023-05-21T07:37:13.766Z,74.95
2023-05-21T07:39:40.503Z,80.72
2023-05-21T07:42:11.222Z,70.57
2023-05-21T07:44:37.754Z,73.22
2023-05-21T07:47:05.149Z,62.88
2023-05-21T07:49:31.621Z,95.97
2023-05-21T07:51:58.035Z,72.10
2023-05-21T07:54:24.458Z,71.68
2023-05-21T07:56:50.963Z,76.40
2023-05-21T07:59:17.388Z,66.43
2023-05-21T08:01:44.160Z,72.60
2023-05-21T08:04:11.152Z,125.82
2023-05-21T08:06:37.779Z,96.45
2023-05-21T08:09:06.153Z,107.28
2023-05-21T08:11:33.132Z,100.57
2023-05-21T08:14:00.057Z,97.82
2023-05-21T08:16:26.905Z,79.45
2023-05-21T08:18:53.604Z,70.03
2023-05-21T08:21:20.137Z,108.03
2023-05-21T08:23:46.576Z,79.10
2023-05-21T08:26:13.041Z,105.43
2023-05-21T08:28:39.539Z,100.70
2023-05-21T08:31:06.052Z,98.13
2023-05-21T08:33:37.072Z,68.18
2023-05-21T08:36:07.258Z,66.63
2023-05-21T08:38:35.141Z,96.22
2023-05-21T08:41:01.559Z,92.88
2023-05-21T08:43:29.137Z,121.90
2023-05-21T08:45:59.075Z,86.18
2023-05-21T08:48:25.739Z,76.20
2023-05-21T08:50:53.480Z,166.77
2023-05-21T08:53:28.072Z,185.27
2023-05-21T08:55:57.240Z,66.72
2023-05-21T08:58:24.348Z,68.15
2023-05-21T09:00:50.998Z,77.85
2023-05-21T09:03:17.929Z,87.88
2023-05-21T09:05:45.740Z,104.05
2023-05-21T09:08:19.408Z,89.03
2023-05-21T09:10:50.629Z,65.97
2023-05-21T09:13:18.286Z,67.55
2023-05-21T09:15:45.759Z,71.60
2023-05-21T09:18:12.727Z,119.22
2023-05-21T09:20:39.900Z,91.57
2023-05-21T09:23:12.389Z,111.10
2023-05-21T09:25:39.624Z,88.10
2023-05-21T09:28:12.952Z,59.72
2023-05-21T09:30:53.525Z,77.57
2023-05-21T09:33:29.530Z,82.60
2023-05-21T09:35:56.479Z,109.50
2023-05-21T09:38:23.974Z,40.88
2023-05-21T09:40:50.504Z,71.25
2023-05-21T09:43:17.242Z,34.70
2023-05-21T09:45:59.725Z,77.97
2023-05-21T09:51:18.529Z,30.67
2023-05-21T09:53:50.127Z,30.50
2023-05-21T09:56:19.197Z,44.53
2023-05-21T09:58:46.267Z,84.38
2023-05-21T10:01:13.357Z,138.43
2023-05-21T10:03:42.614Z,238.38
2023-05-21T10:06:10.074Z,57.95
2023-05-21T10:08:41.011Z,33.53
2023-05-21T10:11:08.922Z,126.57
2023-05-21T10:13:41.593Z,59.95
2023-05-21T10:16:08.454Z,68.07
2023-05-21T10:18:37.656Z,35.88
2023-05-21T10:21:07.091Z,41.00
2023-05-21T10:23:36.182Z,41.58
2023-05-21T10:26:04.060Z,36.78
2023-05-21T10:28:37.596Z,43.35
2023-05-21T10:31:04.380Z,39.72
2023-05-21T10:33:32.032Z,38.83
2023-05-21T10:35:59.365Z,173.10
2023-05-21T10:38:27.599Z,129.32
2023-05-21T10:40:55.793Z,37.22
2023-05-21T10:43:59.529Z,38.92
2023-05-21T10:47:08.673Z,29.27
2023-05-21T10:49:49.486Z,23.58
2023-05-21T10:52:34.850Z,32.13
2023-05-21T10:55:26.954Z,31.38
2023-05-21T10:58:12.278Z,31.88
2023-05-21T11:00:39.326Z,28.55
2023-05-21T11:03:07.685Z,22.90
2023-05-21T11:05:55.254Z,26.30
2023-05-21T11:08:35.647Z,28.60
2023-05-21T11:11:03.487Z,26.60
2023-05-21T11:13:49.152Z,71.32
2023-05-21T11:16:17.117Z,41.33
2023-05-21T11:18:46.533Z,28.00
2023-05-21T11:21:18.194Z,27.50
2023-05-21T11:23:50.684Z,37.42
2023-05-21T11:26:18.612Z,27.60
2023-05-21T11:28:45.164Z,23.27
2023-05-21T11:31:28.045Z,25.98
2023-05-21T11:34:21.750Z,27.92
2023-05-21T11:36:49.720Z,28.35
2023-05-21T11:39:25.409Z,31.92
2023-05-21T11:41:53.276Z,31.73
2023-05-21T11:44:37.464Z,53.20
2023-05-21T11:47:04.715Z,39.40
2023-05-21T11:49:31.827Z,26.42
2023-05-21T11:52:00.500Z,39.30
2023-05-21T11:54:27.961Z,69.65
2023-05-21T11:56:54.959Z,38.05
2023-05-21T11:59:21.430Z,42.55
2023-05-21T12:01:47.797Z,33.58
2023-05-21T12:04:14.232Z,29.02
2023-05-21T12:06:44.046Z,28.73
2023-05-21T12:09:11.130Z,26.55
2023-05-21T12:11:41.386Z,35.38
2023-05-21T12:14:11.218Z,25.15
2023-05-21T12:16:39.342Z,22.55
2023-05-21T12:19:06.731Z,28.67
2023-05-21T12:21:34.091Z,27.98
2023-05-21T12:24:00.555Z,22.13
2023-05-21T12:26:27.652Z,22.42
2023-05-21T12:28:55.100Z,20.67
2023-05-21T12:31:22.956Z,22.70
2023-05-21T12:33:50.942Z,21.10
2023-05-21T12:36:28.236Z,22.40
2023-05-21T12:38:54.652Z,20.15
2023-05-21T12:41:22.047Z,26.60
2023-05-21T12:43:49.093Z,29.70
2023-05-21T12:46:17.608Z,33.85
2023-05-21T12:48:55.446Z,25.98
2023-05-21T12:51:22.378Z,25.48
2023-05-21T12:53:48.897Z,31.60
2023-05-21T12:56:15.932Z,24.80
2023-05-21T12:58:43.005Z,22.23
2023-05-21T13:01:11.253Z,26.90
2023-05-21T13:03:38.941Z,25.90
2023-05-21T13:06:09.266Z,25.35
2023-05-21T13:08:35.767Z,23.35
2023-05-21T13:11:03.464Z,24.10
2023-05-21T13:13:30.565Z,26.55
2023-05-21T13:15:57.107Z,30.17
2023-05-21T13:18:23.663Z,48.10
2023-05-21T13:20:51.606Z,31.83
2023-05-21T13:23:18.031Z,27.58
2023-05-21T13:25:44.601Z,28.00
2023-05-21T13:28:14.941Z,33.70
2023-05-21T13:30:41.410Z,30.80
2023-05-21T13:33:08.031Z,32.20
2023-05-21T13:35:34.716Z,31.42
2023-05-21T13:38:01.159Z,26.80
2023-05-21T13:40:27.764Z,27.15
2023-05-21T13:42:54.197Z,30.17
2023-05-21T13:45:21.040Z,32.67
2023-05-21T13:47:48.197Z,30.90
2023-05-21T13:50:16.132Z,28.63
2023-05-21T13:52:42.607Z,31.25
2023-05-21T13:55:09.920Z,30.30
2023-05-21T13:57:36.446Z,32.03
2023-05-21T14:00:03.914Z,30.42
2023-05-21T14:02:30.506Z,25.83
2023-05-21T14:04:57.135Z,26.95
2023-05-21T14:07:23.606Z,26.42
2023-05-21T14:09:50.111Z,30.00
2023-05-21T14:12:17.018Z,27.60
2023-05-21T14:14:43.629Z,27.17
2023-05-21T14:17:10.084Z,25.95
2023-05-21T14:19:36.582Z,26.45
2023-05-21T14:22:02.968Z,25.40
2023-05-21T14:24:29.403Z,19.92
2023-05-21T14:26:55.800Z,20.80
2023-05-21T14:29:22.209Z,23.55
2023-05-21T14:31:48.705Z,21.55
2023-05-21T14:34:15.293Z,21.75
2023-05-21T14:36:41.823Z,22.30
2023-05-21T14:39:08.252Z,20.17
2023-05-21T14:41:39.102Z,20.25
2023-05-21T14:44:05.680Z,20.63
2023-05-21T14:46:32.525Z,19.00
2023-05-21T14:49:00.149Z,21.63
2023-05-21T14:51:26.648Z,19.20
2023-05-21T14:53:53.064Z,18.80
2023-05-21T14:56:21.889Z,20.45
2023-05-21T14:58:48.540Z,18.73
2023-05-21T15:01:15.065Z,17.15
2023-05-21T15:03:41.624Z,28.73
2023-05-21T15:06:08.340Z,16.30
2023-05-21T15:08:34.808Z,21.88
2023-05-21T15:11:01.200Z,16.50
2023-05-21T15:13:27.961Z,15.65
2023-05-21T15:15:54.481Z,16.25
2023-05-21T15:18:20.980Z,16.10
2023-05-21T15:20:47.632Z,16.67
2023-05-21T15:23:17.182Z,17.17
2023-05-21T15:25:44.857Z,15.57
2023-05-21T15:28:12.015Z,17.80
2023-05-21T15:30:38.554Z,19.65
2023-05-21T15:33:05.382Z,20.30
2023-05-21T15:35:32.007Z,18.25
2023-05-21T15:37:58.471Z,17.50
2023-05-21T15:40:26.933Z,18.52
2023-05-21T15:42:53.806Z,20.83
2023-05-21T15:45:20.396Z,25.98
2023-05-21T15:47:46.867Z,30.25
2023-05-21T15:50:13.304Z,28.45
2023-05-21T15:52:41.304Z,24.25
2023-05-21T15:55:08.175Z,26.73
2023-05-21T15:57:34.607Z,25.90
2023-05-21T16:00:01.066Z,20.17
2023-05-21T16:02:27.551Z,27.88
2023-05-21T16:04:54.013Z,28.08
2023-05-21T16:07:21.341Z,21.17
2023-05-21T16:09:47.855Z,29.38
2023-05-21T16:12:14.317Z,28.98
2023-05-21T16:14:41.329Z,21.77
2023-05-21T16:17:08.121Z,20.10
2023-05-21T16:19:34.750Z,19.30
2023-05-21T16:22:01.981Z,17.98
2023-05-21T16:24:28.351Z,19.13
2023-05-21T16:26:55.383Z,19.10
2023-05-21T16:29:22.317Z,19.38
2023-05-21T16:31:49.111Z,19.38
2023-05-21T16:34:16.035Z,26.85
2023-05-21T16:36:42.822Z,30.67
2023-05-21T16:39:09.351Z,28.25
2023-05-21T16:41:35.816Z,34.67
2023-05-21T16:44:02.290Z,30.95
2023-05-21T16:46:28.691Z,28.27
2023-05-21T16:48:55.070Z,31.50
2023-05-21T16:51:21.427Z,56.92
2023-05-21T16:53:48.183Z,44.15
2023-05-21T16:56:14.816Z,33.67
2023-05-21T16:58:41.257Z,28.98
2023-05-21T17:01:07.703Z,31.00
2023-05-21T17:03:34.359Z,198.52
2023-05-21T17:06:00.830Z,82.82
2023-05-21T17:08:27.235Z,35.97
2023-05-21T17:10:53.673Z,137.57
2023-05-21T17:13:22.742Z,32.45
2023-05-21T17:15:51.155Z,85.68
2023-05-21T17:18:17.739Z,62.70
2023-05-21T17:20:44.283Z,90.03
2023-05-21T17:23:11.839Z,81.38
2023-05-21T17:25:38.647Z,65.90
2023-05-21T17:28:05.434Z,44.42
2023-05-21T17:30:31.870Z,109.45
2023-05-21T17:32:58.375Z,101.05
2023-05-21T17:35:24.918Z,370.02
2023-05-21T17:37:53.199Z,54.15
2023-05-21T17:40:21.318Z,37.90
2023-05-21T17:42:47.948Z,87.70
2023-05-21T17:45:14.422Z,164.00
2023-05-21T17:47:40.957Z,85.03
2023-05-21T17:50:08.124Z,117.40
2023-05-21T17:52:34.548Z,81.03
2023-05-21T17:55:01.677Z,133.85
2023-05-21T17:57:28.245Z,135.40
2023-05-21T17:59:55.458Z,267.08
2023-05-21T18:02:23.446Z,146.80
2023-05-21T18:04:50.085Z,44.28
2023-05-21T18:07:16.672Z,142.65
2023-05-21T18:09:43.322Z,71.90
2023-05-21T18:12:09.731Z,111.35
2023-05-21T18:14:36.186Z,329.83
2023-05-21T18:17:02.831Z,171.35
2023-05-21T18:19:30.388Z,347.63
2023-05-21T18:21:57.179Z,359.17
2023-05-21T18:24:23.653Z,177.43
2023-05-21T18:26:50.124Z,203.18
2023-05-21T18:29:16.530Z,462.80
2023-05-21T18:31:44.634Z,263.13
2023-05-21T18:34:11.163Z,279.88
2023-05-21T18:36:40.672Z,373.60
2023-05-21T18:39:09.939Z,464.13
2023-05-21T18:41:37.364Z,372.42
2023-05-21T18:44:05.803Z,443.13
2023-05-21T18:46:32.296Z,328.58
2023-05-21T18:49:00.548Z,391.95
2023-05-21T18:51:27.052Z,181.32
2023-05-21T18:53:53.617Z,472.73
2023-05-21T18:56:20.061Z,577.40
2023-05-21T18:58:47.657Z,457.30
2023-05-21T19:01:14.175Z,545.70
2023-05-21T19:03:40.789Z,550.20
2023-05-21T19:06:08.445Z,544.03
2023-05-21T19:08:35.046Z,587.10
2023-05-21T19:11:01.602Z,609.28
2023-05-21T19:13:28.130Z,569.22
2023-05-21T19:15:54.688Z,629.92
2023-05-21T19:18:21.066Z,673.58
2023-05-21T19:20:47.493Z,699.63
2023-05-21T19:23:14.256Z,719.55
2023-05-21T19:25:41.476Z,720.25
2023-05-21T19:28:07.856Z,690.20
2023-05-21T19:30:36.381Z,719.08
2023-05-21T19:33:03.276Z,740.72
2023-05-21T19:35:30.132Z,658.38
2023-05-21T19:38:00.160Z,718.60
2023-05-21T19:40:28.179Z,750.95
2023-05-21T19:42:54.591Z,768.70
2023-05-21T19:45:21.529Z,743.13
2023-05-21T19:47:48.544Z,803.50
2023-05-21T19:50:15.027Z,754.03
2023-05-21T19:52:41.446Z,757.63
2023-05-21T19:55:10.190Z,719.63
2023-05-21T19:57:37.150Z,724.60
2023-05-21T20:00:05.320Z,813.30
2023-05-21T20:02:31.997Z,754.22
2023-05-21T20:04:59.090Z,773.42
2023-05-21T20:07:25.814Z,803.67
2023-05-21T20:09:52.378Z,821.42
2023-05-21T20:12:19.005Z,866.58
2023-05-21T20:14:47.321Z,842.92
2023-05-21T20:17:14.402Z,834.83
2023-05-21T20:19:41.030Z,792.40
2023-05-21T20:22:07.474Z,885.72
2023-05-21T20:24:33.849Z,862.00
2023-05-21T20:27:01.521Z,875.22
2023-05-21T20:29:28.683Z,851.80
2023-05-21T20:31:55.271Z,865.05
2023-05-21T20:34:21.792Z,831.95
2023-05-21T20:36:48.372Z,890.08
2023-05-21T20:39:15.561Z,867.80
2023-05-21T20:41:44.486Z,817.83
2023-05-21T20:44:11.100Z,843.72
2023-05-21T20:46:38.259Z,859.25
2023-05-21T20:49:05.177Z,822.40
2023-05-21T20:51:31.710Z,862.90
2023-05-21T20:53:58.270Z,865.83
2023-05-21T20:56:37.464Z,908.67
2023-05-21T20:59:09.966Z,903.03
2023-05-21T21:01:37.750Z,879.28
2023-05-21T21:04:04.795Z,878.65
2023-05-21T21:06:31.684Z,902.63
2023-05-21T21:08:58.171Z,912.13
2023-05-21T21:11:24.640Z,881.20
2023-05-21T21:13:51.756Z,908.20
2023-05-21T21:16:18.172Z,859.35
2023-05-21T21:18:45.999Z,868.28
2023-05-21T21:21:12.544Z,911.50
2023-05-21T21:23:39.019Z,826.83
2023-05-21T21:26:05.578Z,850.85
2023-05-21T21:28:31.967Z,791.05
2023-05-21T21:30:58.394Z,853.35
2023-05-21T21:33:26.440Z,886.80
2023-05-21T21:35:52.931Z,836.40
2023-05-21T21:38:19.292Z,890.45
2023-05-21T21:40:45.750Z,884.45
2023-05-21T21:43:12.140Z,873.42
2023-05-21T21:45:38.620Z,892.10
2023-05-21T21:48:05.225Z,885.35
2023-05-21T21:50:31.712Z,898.40
2023-05-21T21:52:58.088Z,912.95
2023-05-21T21:55:24.566Z,910.65
2023-05-21T21:57:51.244Z,935.00
2023-05-21T22:00:17.868Z,921.33
2023-05-21T22:02:46.553Z,928.47
2023-05-21T22:05:14.900Z,913.70
2023-05-21T22:07:42.630Z,890.05
2023-05-21T22:10:09.418Z,917.28
2023-05-21T22:12:35.908Z,915.15
2023-05-21T22:15:05.104Z,956.53
2023-05-21T22:17:32.712Z,912.70
2023-05-21T22:19:59.452Z,904.72
2023-05-21T22:22:26.225Z,890.22
2023-05-21T22:24:53.385Z,882.58
2023-05-21T22:27:20.268Z,886.28
2023-05-21T22:29:47.023Z,879.25
2023-05-21T22:32:13.709Z,866.85
2023-05-21T22:34:40.102Z,860.22
2023-05-21T22:37:06.473Z,868.83
2023-05-21T22:39:32.852Z,824.28
2023-05-21T22:41:59.578Z,834.70
2023-05-21T22:44:25.999Z,826.78
2023-05-21T22:46:52.455Z,853.92
2023-05-21T22:49:19.742Z,828.97
2023-05-21T22:51:46.301Z,781.10
2023-05-21T22:54:12.708Z,746.60
2023-05-21T22:56:39.106Z,768.05
2023-05-21T22:59:05.570Z,761.42
2023-05-21T23:01:32.014Z,735.10
2023-05-21T23:03:58.427Z,723.15
2023-05-21T23:06:24.801Z,731.33
2023-05-21T23:08:51.221Z,744.08
2023-05-21T23:11:17.639Z,727.17
2023-05-21T23:13:44.000Z,698.78
2023-05-21T23:16:10.431Z,708.40
2023-05-21T23:18:36.908Z,688.95
2023-05-21T23:21:03.424Z,697.22
2023-05-21T23:23:30.417Z,687.55
2023-05-21T23:25:58.743Z,688.42
2023-05-21T23:28:25.810Z,691.08
2023-05-21T23:30:52.602Z,682.65
2023-05-21T23:33:19.002Z,697.97
2023-05-21T23:35:45.441Z,687.88
2023-05-21T23:38:11.826Z,684.22
2023-05-21T23:40:38.511Z,686.60
2023-05-21T23:43:05.192Z,676.65
2023-05-21T23:45:31.697Z,662.58
2023-05-21T23:47:58.173Z,659.00
2023-05-21T23:50:24.894Z,649.67
2023-05-21T23:52:51.342Z,664.88
2023-05-21T23:55:17.801Z,643.33
2023-05-21T23:57:44.219Z,640.05
